Time;durP1;ratioP1;P1;durP2;ratioP2;P2;SDS_P1;SDS_P2;PMS_P1;PMS_P2;Temp;Humidity;BMP_temperature;BMP_pressure;BME280_temperature;BME280_humidity;BME280_pressure;Samples;Min_cycle;Max_cycle;Signal;HPM_P1;HPM_P2
2023/08/09 00:01:19;;;;;;;3.75;2.05;;;;;;;;;;5030249;28;20041;-67
2023/08/09 00:03:45;;;;;;;2.70;1.80;;;;;;;;;;5030184;28;20028;-67
2023/08/09 00:06:11;;;;;;;6.40;2.45;;;;;;;;;;5029922;28;20126;-67
2023/08/09 00:08:36;;;;;;;4.13;1.80;;;;;;;;;;5030463;28;20029;-67
2023/08/09 00:11:02;;;;;;;4.05;2.05;;;;;;;;;;5030123;28;20076;-67
2023/08/09 00:13:28;;;;;;;6.05;2.00;;;;;;;;;;5030088;28;20120;-67
2023/08/09 00:15:54;;;;;;;3.97;2.28;;;;;;;;;;5030227;28;20475;-67
2023/08/09 00:18:20;;;;;;;3.13;1.75;;;;;;;;;;5029896;28;20031;-67
2023/08/09 00:20:46;;;;;;;2.67;2.03;;;;;;;;;;5030098;28;20033;-67
2023/08/09 00:23:13;;;;;;;2.65;1.88;;;;;;;;;;5030543;28;20065;-67
2023/08/09 00:25:40;;;;;;;3.40;2.00;;;;;;;;;;5030024;28;20041;-67
2023/08/09 00:28:07;;;;;;;4.47;1.90;;;;;;;;;;5030319;28;20099;-68
2023/08/09 00:30:33;;;;;;;2.33;1.73;;;;;;;;;;5012542;28;20033;-68
2023/08/09 00:32:58;;;;;;;2.45;1.67;;;;;;;;;;5029952;28;20036;-69
2023/08/09 00:35:24;;;;;;;2.70;2.00;;;;;;;;;;5011785;28;20052;-67
2023/08/09 00:37:50;;;;;;;3.15;1.90;;;;;;;;;;5029794;28;20029;-69
2023/08/09 00:40:15;;;;;;;2.40;1.60;;;;;;;;;;5012113;28;20515;-66
2023/08/09 00:42:41;;;;;;;3.10;1.98;;;;;;;;;;5012028;28;20033;-66
2023/08/09 00:45:08;;;;;;;4.15;1.90;;;;;;;;;;5029337;28;20033;-68
2023/08/09 00:47:35;;;;;;;3.47;1.90;;;;;;;;;;5012318;28;20027;-68
2023/08/09 00:50:02;;;;;;;3.45;1.73;;;;;;;;;;5030284;28;20048;-68
2023/08/09 00:52:27;;;;;;;3.03;1.98;;;;;;;;;;5030122;28;20037;-67
2023/08/09 00:54:54;;;;;;;5.55;1.90;;;;;;;;;;5030032;28;20037;-68
2023/08/09 00:57:19;;;;;;;3.85;2.05;;;;;;;;;;5012270;28;20025;-67
2023/08/09 00:59:46;;;;;;;2.50;1.75;;;;;;;;;;5028422;28;20032;-67
2023/08/09 01:02:11;;;;;;;3.38;2.20;;;;;;;;;;5011961;28;20029;-67
2023/08/09 01:04:38;;;;;;;4.88;2.05;;;;;;;;;;5011545;28;20402;-66
2023/08/09 01:07:36;;;;;;;2.83;2.03;;;;;;;;;;5011398;28;20063;-65
2023/08/09 01:10:07;;;;;;;3.10;1.98;;;;;;;;;;5011561;28;20042;-66
2023/08/09 01:12:49;;;;;;;3.72;2.00;;;;;;;;;;5011431;28;20335;-66
2023/08/09 01:15:18;;;;;;;3.88;2.10;;;;;;;;;;5011531;28;20042;-68
2023/08/09 01:17:48;;;;;;;2.45;1.75;;;;;;;;;;5012119;28;20029;-66
2023/08/09 01:20:16;;;;;;;4.38;2.10;;;;;;;;;;5031323;28;20121;-67
2023/08/09 01:22:51;;;;;;;4.40;2.10;;;;;;;;;;5048884;28;20032;-67
2023/08/09 01:25:17;;;;;;;3.65;2.30;;;;;;;;;;5030956;28;20124;-66
2023/08/09 01:27:42;;;;;;;3.75;2.45;;;;;;;;;;5031657;28;20168;-66
2023/08/09 01:30:09;;;;;;;3.90;2.00;;;;;;;;;;5030908;28;20150;-67
2023/08/09 01:32:35;;;;;;;5.65;1.90;;;;;;;;;;5030947;28;20115;-66
2023/08/09 01:35:01;;;;;;;2.40;1.80;;;;;;;;;;5030579;28;20037;-66
2023/08/09 01:37:41;;;;;;;2.45;1.73;;;;;;;;;;5031157;28;20454;-66
2023/08/09 01:40:10;;;;;;;4.45;2.08;;;;;;;;;;5031363;28;20025;-66
2023/08/09 01:42:40;;;;;;;3.70;2.20;;;;;;;;;;5014965;28;20029;-67
2023/08/09 01:45:10;;;;;;;2.60;1.90;;;;;;;;;;5031065;28;20434;-67
2023/08/09 01:47:36;;;;;;;2.83;2.10;;;;;;;;;;5031048;28;20045;-67
2023/08/09 01:50:01;;;;;;;3.03;1.98;;;;;;;;;;5030728;28;20025;-68
2023/08/09 01:52:27;;;;;;;2.90;2.03;;;;;;;;;;5030686;28;20037;-67
2023/08/09 01:54:53;;;;;;;5.60;1.95;;;;;;;;;;5012721;28;20025;-66
2023/08/09 01:57:20;;;;;;;3.50;2.00;;;;;;;;;;5013264;28;20120;-67
2023/08/09 01:59:46;;;;;;;2.38;1.70;;;;;;;;;;5013500;28;20021;-66
2023/08/09 02:02:12;;;;;;;4.70;2.60;;;;;;;;;;5013227;28;20544;-67
2023/08/09 02:04:38;;;;;;;5.55;2.10;;;;;;;;;;5012537;28;20037;-66
2023/08/09 02:07:04;;;;;;;2.70;1.90;;;;;;;;;;5030789;28;20045;-67
2023/08/09 02:09:30;;;;;;;2.40;1.65;;;;;;;;;;5013981;28;20141;-67
2023/08/09 02:11:57;;;;;;;2.35;1.80;;;;;;;;;;5016437;28;20124;-66
2023/08/09 02:14:22;;;;;;;3.40;1.80;;;;;;;;;;5016273;28;20554;-67
2023/08/09 02:16:48;;;;;;;2.05;1.55;;;;;;;;;;5017236;28;20034;-67
2023/08/09 02:19:14;;;;;;;2.85;1.77;;;;;;;;;;5016836;28;20471;-67
2023/08/09 02:21:43;;;;;;;2.10;1.70;;;;;;;;;;5016453;28;20395;-67
2023/08/09 02:24:09;;;;;;;2.42;1.92;;;;;;;;;;5034032;28;20079;-67
2023/08/09 02:26:38;;;;;;;2.63;1.98;;;;;;;;;;5016644;28;20037;-68
2023/08/09 02:29:05;;;;;;;3.25;1.95;;;;;;;;;;5016607;28;20436;-66
2023/08/09 02:31:33;;;;;;;3.70;1.75;;;;;;;;;;5016713;28;20025;-65
2023/08/09 02:33:59;;;;;;;3.72;2.10;;;;;;;;;;5033199;28;20052;-67
2023/08/09 02:36:25;;;;;;;3.35;1.88;;;;;;;;;;5016220;28;20116;-67
2023/08/09 02:38:51;;;;;;;2.78;1.88;;;;;;;;;;5016198;28;20037;-67
2023/08/09 02:41:17;;;;;;;4.10;1.83;;;;;;;;;;5016180;28;20031;-67
2023/08/09 02:43:43;;;;;;;7.13;2.30;;;;;;;;;;5032155;28;20037;-67
2023/08/09 02:46:10;;;;;;;4.55;2.15;;;;;;;;;;5032695;28;20049;-65
2023/08/09 02:48:36;;;;;;;3.78;1.90;;;;;;;;;;5033710;28;20498;-67
2023/08/09 02:51:03;;;;;;;8.77;2.28;;;;;;;;;;5033959;28;20033;-67
2023/08/09 02:53:36;;;;;;;3.90;1.98;;;;;;;;;;5032786;28;20034;-66
2023/08/09 02:56:02;;;;;;;4.82;2.38;;;;;;;;;;5015944;28;20068;-66
2023/08/09 02:58:28;;;;;;;4.60;2.05;;;;;;;;;;5033961;28;20057;-67
2023/08/09 03:00:54;;;;;;;2.42;1.80;;;;;;;;;;5016203;28;20064;-67
2023/08/09 03:03:19;;;;;;;4.93;2.10;;;;;;;;;;5015766;28;20033;-67
2023/08/09 03:05:45;;;;;;;5.20;2.15;;;;;;;;;;5015835;28;20029;-67
2023/08/09 03:08:11;;;;;;;2.75;1.85;;;;;;;;;;5033943;28;20437;-67
2023/08/09 03:10:37;;;;;;;2.65;1.95;;;;;;;;;;5015758;28;20029;-67
2023/08/09 03:13:02;;;;;;;4.90;2.03;;;;;;;;;;5015689;28;20503;-67
2023/08/09 03:15:29;;;;;;;4.55;2.05;;;;;;;;;;5015312;28;20044;-68
2023/08/09 03:17:55;;;;;;;3.63;1.77;;;;;;;;;;5033864;28;20021;-68
2023/08/09 03:20:22;;;;;;;3.92;1.98;;;;;;;;;;5015604;28;20034;-68
2023/08/09 03:22:48;;;;;;;3.50;1.95;;;;;;;;;;4998311;28;20116;-67
2023/08/09 03:25:16;;;;;;;5.50;1.80;;;;;;;;;;5018783;28;20172;-68
2023/08/09 03:27:45;;;;;;;8.95;2.40;;;;;;;;;;5012437;28;20268;-68
2023/08/09 03:30:13;;;;;;;8.50;2.00;;;;;;;;;;5012356;28;20106;-68
2023/08/09 03:32:40;;;;;;;7.50;2.05;;;;;;;;;;5012347;28;20053;-68
2023/08/09 03:35:07;;;;;;;3.58;1.88;;;;;;;;;;5012299;28;20044;-68
2023/08/09 03:37:35;;;;;;;2.65;1.90;;;;;;;;;;5045875;28;20552;-68
2023/08/09 03:40:01;;;;;;;2.75;1.92;;;;;;;;;;5026758;28;20034;-68
2023/08/09 03:42:26;;;;;;;3.58;2.00;;;;;;;;;;5025055;28;20032;-69
2023/08/09 03:44:53;;;;;;;2.40;1.70;;;;;;;;;;5031038;28;20032;-67
2023/08/09 03:47:19;;;;;;;7.65;2.00;;;;;;;;;;5037230;28;20108;-67
2023/08/09 03:49:45;;;;;;;5.07;2.03;;;;;;;;;;5012859;28;20037;-68
2023/08/09 03:52:11;;;;;;;3.25;2.20;;;;;;;;;;5013089;28;20052;-67
2023/08/09 03:54:37;;;;;;;4.57;2.03;;;;;;;;;;5012541;28;20033;-68
2023/08/09 03:57:04;;;;;;;4.00;2.10;;;;;;;;;;4996236;28;20086;-67
2023/08/09 03:59:30;;;;;;;9.15;2.30;;;;;;;;;;5013027;28;20148;-68
2023/08/09 04:01:56;;;;;;;14.80;3.40;;;;;;;;;;5012336;28;20109;-66
2023/08/09 04:04:23;;;;;;;9.93;2.63;;;;;;;;;;5029857;28;20126;-67
2023/08/09 04:06:49;;;;;;;8.25;2.45;;;;;;;;;;5018928;28;20051;-68
2023/08/09 04:09:15;;;;;;;4.53;2.20;;;;;;;;;;5030373;28;20048;-67
2023/08/09 04:11:40;;;;;;;3.47;2.05;;;;;;;;;;5013623;28;20108;-67
2023/08/09 04:14:06;;;;;;;4.43;1.95;;;;;;;;;;5029501;28;20395;-67
2023/08/09 04:16:31;;;;;;;5.13;2.03;;;;;;;;;;5014537;28;20031;-68
2023/08/09 04:18:58;;;;;;;4.72;2.33;;;;;;;;;;5032213;28;20036;-67
2023/08/09 04:21:24;;;;;;;4.05;2.15;;;;;;;;;;5014576;28;20025;-68
2023/08/09 04:23:50;;;;;;;6.00;1.90;;;;;;;;;;5031770;28;20395;-68
2023/08/09 04:26:15;;;;;;;5.32;2.28;;;;;;;;;;5031631;28;20025;-69
2023/08/09 04:28:41;;;;;;;6.88;2.20;;;;;;;;;;5032207;28;20391;-67
2023/08/09 04:31:07;;;;;;;7.43;2.40;;;;;;;;;;5031799;28;20025;-68
2023/08/09 04:33:33;;;;;;;13.13;2.83;;;;;;;;;;5031016;28;20034;-68
2023/08/09 04:35:59;;;;;;;5.65;2.20;;;;;;;;;;5031897;28;20036;-67
2023/08/09 04:38:25;;;;;;;10.85;2.83;;;;;;;;;;5031912;28;20034;-67
2023/08/09 04:40:50;;;;;;;10.30;2.20;;;;;;;;;;5031668;28;20387;-67
2023/08/09 04:43:17;;;;;;;7.85;2.53;;;;;;;;;;5031560;28;20061;-68
2023/08/09 04:45:43;;;;;;;12.55;2.97;;;;;;;;;;5031949;28;20025;-68
2023/08/09 04:48:15;;;;;;;4.30;2.35;;;;;;;;;;5031150;28;20029;-67
2023/08/09 04:50:41;;;;;;;4.88;2.38;;;;;;;;;;5031545;28;20049;-67
2023/08/09 04:53:07;;;;;;;4.30;2.13;;;;;;;;;;5031528;28;20455;-68
2023/08/09 04:55:33;;;;;;;10.93;2.47;;;;;;;;;;5013949;28;20033;-67
2023/08/09 04:57:58;;;;;;;8.27;3.35;;;;;;;;;;5031343;28;20025;-67
2023/08/09 05:00:24;;;;;;;4.70;2.45;;;;;;;;;;5014054;28;20060;-67
2023/08/09 05:02:50;;;;;;;7.78;2.13;;;;;;;;;;5031670;28;20080;-68
2023/08/09 05:05:16;;;;;;;9.30;2.40;;;;;;;;;;5031702;28;20089;-67
2023/08/09 05:07:41;;;;;;;2.72;1.77;;;;;;;;;;5031588;28;20472;-67
2023/08/09 05:10:09;;;;;;;8.38;2.30;;;;;;;;;;5031352;28;20391;-69
2023/08/09 05:12:35;;;;;;;6.75;2.60;;;;;;;;;;5031662;28;20022;-68
2023/08/09 05:15:01;;;;;;;11.38;2.40;;;;;;;;;;5031046;28;20116;-68
2023/08/09 05:17:27;;;;;;;4.20;2.17;;;;;;;;;;5031487;28;20100;-68
2023/08/09 05:19:52;;;;;;;8.05;2.75;;;;;;;;;;5031552;28;20034;-68
2023/08/09 05:22:19;;;;;;;6.10;2.30;;;;;;;;;;5031492;28;20021;-69
2023/08/09 05:24:45;;;;;;;6.55;2.17;;;;;;;;;;5013556;28;20503;-67
2023/08/09 05:27:10;;;;;;;11.88;2.80;;;;;;;;;;5031132;28;20021;-67
2023/08/09 05:29:36;;;;;;;9.95;2.60;;;;;;;;;;5031267;28;20087;-68
2023/08/09 05:32:03;;;;;;;7.72;2.90;;;;;;;;;;5030927;28;20060;-67
2023/08/09 05:34:29;;;;;;;15.38;4.85;;;;;;;;;;5030954;28;20025;-68
2023/08/09 05:36:54;;;;;;;8.85;2.50;;;;;;;;;;5030735;28;20079;-68
2023/08/09 05:39:20;;;;;;;8.20;2.40;;;;;;;;;;5030694;28;20037;-70
2023/08/09 05:41:46;;;;;;;18.25;3.45;;;;;;;;;;5030495;28;20021;-69
2023/08/09 05:44:11;;;;;;;11.98;3.35;;;;;;;;;;5031195;28;20067;-68
2023/08/09 05:46:37;;;;;;;8.75;2.10;;;;;;;;;;5034168;28;20017;-69
2023/08/09 05:49:03;;;;;;;8.32;2.33;;;;;;;;;;5033914;28;20069;-69
2023/08/09 05:51:31;;;;;;;5.13;2.10;;;;;;;;;;5034364;28;20017;-69
2023/08/09 05:53:57;;;;;;;8.05;2.28;;;;;;;;;;5033919;28;20040;-70
2023/08/09 05:56:23;;;;;;;9.98;2.42;;;;;;;;;;5034156;28;20022;-69
2023/08/09 05:58:49;;;;;;;11.70;2.90;;;;;;;;;;5034677;28;20040;-69
2023/08/09 06:01:14;;;;;;;21.75;2.72;;;;;;;;;;5026444;28;20483;-68
2023/08/09 06:03:40;;;;;;;5.45;2.00;;;;;;;;;;5017439;28;20391;-69
2023/08/09 06:06:13;;;;;;;3.30;2.08;;;;;;;;;;5041229;28;20021;-69
2023/08/09 06:08:39;;;;;;;3.70;1.83;;;;;;;;;;5033564;28;20051;-71
2023/08/09 06:11:05;;;;;;;3.33;1.60;;;;;;;;;;5015769;28;20023;-70
2023/08/09 06:13:31;;;;;;;4.10;1.70;;;;;;;;;;5033593;28;20034;-70
2023/08/09 06:15:57;;;;;;;5.30;1.60;;;;;;;;;;5033612;28;20375;-69
2023/08/09 06:18:23;;;;;;;4.47;1.80;;;;;;;;;;5016059;28;20446;-70
2023/08/09 06:20:49;;;;;;;5.25;2.13;;;;;;;;;;5033147;28;20021;-69
2023/08/09 06:23:15;;;;;;;7.75;1.90;;;;;;;;;;5016030;28;20037;-68
2023/08/09 06:25:41;;;;;;;11.52;2.30;;;;;;;;;;5033589;28;20013;-69
2023/08/09 06:28:07;;;;;;;7.45;1.90;;;;;;;;;;5033233;28;20040;-68
2023/08/09 06:30:33;;;;;;;6.13;1.90;;;;;;;;;;5033894;28;20100;-70
2023/08/09 06:32:59;;;;;;;4.43;1.98;;;;;;;;;;5034173;28;20119;-69
2023/08/09 06:35:25;;;;;;;5.50;1.85;;;;;;;;;;5033310;28;20075;-68
2023/08/09 06:37:52;;;;;;;6.18;1.88;;;;;;;;;;5016316;28;20041;-69
2023/08/09 06:40:18;;;;;;;8.13;2.10;;;;;;;;;;5033661;28;20051;-69
2023/08/09 06:42:44;;;;;;;5.47;2.15;;;;;;;;;;5015458;28;20438;-69
2023/08/09 06:45:13;;;;;;;5.70;1.95;;;;;;;;;;5008794;28;20090;-68
2023/08/09 06:47:39;;;;;;;6.88;2.08;;;;;;;;;;5031476;28;20029;-68
2023/08/09 06:50:06;;;;;;;11.25;2.40;;;;;;;;;;5032684;28;20028;-69
2023/08/09 06:52:33;;;;;;;7.47;2.42;;;;;;;;;;5033494;28;20437;-70
2023/08/09 06:55:00;;;;;;;4.05;2.08;;;;;;;;;;5032822;28;20479;-70
2023/08/09 06:57:25;;;;;;;7.10;2.00;;;;;;;;;;5014648;28;20037;-69
2023/08/09 06:59:52;;;;;;;2.65;1.73;;;;;;;;;;5032981;28;20022;-69
2023/08/09 07:02:19;;;;;;;12.85;2.00;;;;;;;;;;5033267;28;20395;-71
2023/08/09 07:04:44;;;;;;;3.63;1.50;;;;;;;;;;5031526;28;20048;-69
2023/08/09 07:07:10;;;;;;;3.05;1.60;;;;;;;;;;5033543;28;20033;-68
2023/08/09 07:09:36;;;;;;;3.75;1.67;;;;;;;;;;5032978;28;20541;-70
2023/08/09 07:12:02;;;;;;;4.95;1.65;;;;;;;;;;5033212;28;20591;-69
2023/08/09 07:14:27;;;;;;;2.28;1.40;;;;;;;;;;5032935;28;20024;-72
2023/08/09 07:16:53;;;;;;;5.22;1.70;;;;;;;;;;5033242;28;20033;-70
2023/08/09 07:19:19;;;;;;;8.27;1.90;;;;;;;;;;5032873;28;20494;-72
2023/08/09 07:21:44;;;;;;;3.85;1.70;;;;;;;;;;5033283;28;20053;-70
2023/08/09 07:24:10;;;;;;;7.90;2.03;;;;;;;;;;5033422;28;20029;-70
2023/08/09 07:26:36;;;;;;;3.35;1.52;;;;;;;;;;5037692;28;20079;-70
2023/08/09 07:29:03;;;;;;;3.58;1.58;;;;;;;;;;5032164;28;20060;-68
2023/08/09 07:31:28;;;;;;;2.60;1.40;;;;;;;;;;5032686;28;20029;-69
2023/08/09 07:33:54;;;;;;;5.20;1.50;;;;;;;;;;5026594;28;20412;-69
2023/08/09 07:36:20;;;;;;;3.85;1.55;;;;;;;;;;5030722;28;20444;-69
2023/08/09 07:38:46;;;;;;;3.08;1.45;;;;;;;;;;5032716;28;20021;-69
2023/08/09 07:41:12;;;;;;;3.15;1.52;;;;;;;;;;5030976;28;20044;-71
2023/08/09 07:43:38;;;;;;;2.92;1.60;;;;;;;;;;5013482;28;20021;-70
2023/08/09 07:46:06;;;;;;;4.65;1.52;;;;;;;;;;5030696;28;20495;-69
2023/08/09 07:48:34;;;;;;;2.65;1.77;;;;;;;;;;5031832;28;20017;-69
2023/08/09 07:51:01;;;;;;;3.85;1.70;;;;;;;;;;5030974;28;20399;-69
2023/08/09 07:53:27;;;;;;;3.30;1.90;;;;;;;;;;5030643;28;20285;-69
2023/08/09 07:55:53;;;;;;;2.10;1.42;;;;;;;;;;5031015;28;20036;-69
2023/08/09 07:58:19;;;;;;;2.28;1.50;;;;;;;;;;5031986;28;20098;-69
2023/08/09 08:00:45;;;;;;;3.05;1.58;;;;;;;;;;5007601;28;20427;-70
2023/08/09 08:03:10;;;;;;;4.05;1.80;;;;;;;;;;5027907;28;20017;-69
2023/08/09 08:05:39;;;;;;;3.80;1.80;;;;;;;;;;5030385;28;20041;-70
2023/08/09 08:08:04;;;;;;;3.97;1.90;;;;;;;;;;5012508;28;20044;-70
2023/08/09 08:10:31;;;;;;;4.45;1.55;;;;;;;;;;5030484;28;20392;-70
2023/08/09 08:12:57;;;;;;;4.55;1.88;;;;;;;;;;5030203;28;20025;-70
2023/08/09 08:15:22;;;;;;;5.40;1.85;;;;;;;;;;5030205;28;20045;-69
2023/08/09 08:17:51;;;;;;;4.28;1.77;;;;;;;;;;5013105;28;20025;-69
2023/08/09 08:20:19;;;;;;;3.47;1.58;;;;;;;;;;5031635;28;20108;-68
2023/08/09 08:22:47;;;;;;;6.57;2.22;;;;;;;;;;5032292;28;20029;-70
2023/08/09 08:25:14;;;;;;;3.35;1.65;;;;;;;;;;5031495;28;20383;-67
2023/08/09 08:27:45;;;;;;;3.88;1.92;;;;;;;;;;5031758;28;20471;-68
2023/08/09 08:30:20;;;;;;;3.28;1.90;;;;;;;;;;5031830;28;20503;-68
2023/08/09 08:32:47;;;;;;;3.83;1.80;;;;;;;;;;5031806;28;20402;-68
2023/08/09 08:35:14;;;;;;;2.70;1.50;;;;;;;;;;5031663;28;20025;-69
2023/08/09 08:37:41;;;;;;;2.22;1.63;;;;;;;;;;5032107;28;20108;-69
2023/08/09 08:40:09;;;;;;;2.50;1.48;;;;;;;;;;5031673;28;20044;-69
2023/08/09 08:42:36;;;;;;;3.42;1.80;;;;;;;;;;5037640;28;20061;-68
2023/08/09 08:45:11;;;;;;;4.50;1.60;;;;;;;;;;5050956;28;20075;-68
2023/08/09 08:47:41;;;;;;;4.80;1.85;;;;;;;;;;5051657;28;20103;-69
2023/08/09 08:50:10;;;;;;;3.63;1.90;;;;;;;;;;5033882;28;20457;-68
2023/08/09 08:52:38;;;;;;;4.03;1.33;;;;;;;;;;5052100;28;20086;-69
2023/08/09 08:55:06;;;;;;;3.90;1.55;;;;;;;;;;5051219;28;20075;-68
2023/08/09 08:57:33;;;;;;;3.22;1.52;;;;;;;;;;5051081;28;20104;-67
2023/08/09 09:00:01;;;;;;;2.50;1.35;;;;;;;;;;5051417;28;20103;-68
2023/08/09 09:02:26;;;;;;;6.80;1.50;;;;;;;;;;5051467;28;20036;-67
2023/08/09 09:04:52;;;;;;;3.67;1.70;;;;;;;;;;5033263;28;20044;-67
2023/08/09 09:07:18;;;;;;;2.63;1.63;;;;;;;;;;5051171;28;20025;-69
2023/08/09 09:09:56;;;;;;;2.95;1.48;;;;;;;;;;5033262;28;20029;-68
2023/08/09 09:12:22;;;;;;;2.03;1.35;;;;;;;;;;5050718;28;20086;-68
2023/08/09 09:14:51;;;;;;;3.30;1.40;;;;;;;;;;5050975;28;20100;-68
2023/08/09 09:17:19;;;;;;;3.10;1.50;;;;;;;;;;5051255;28;20485;-68
2023/08/09 09:19:45;;;;;;;6.75;1.80;;;;;;;;;;5053024;28;20017;-69
2023/08/09 09:22:28;;;;;;;2.63;1.40;;;;;;;;;;5055355;28;20109;-67
2023/08/09 09:25:02;;;;;;;2.53;1.40;;;;;;;;;;5054934;28;20033;-68
2023/08/09 09:27:33;;;;;;;3.33;1.80;;;;;;;;;;5055089;28;20045;-68
2023/08/09 09:30:12;;;;;;;2.30;1.40;;;;;;;;;;5039894;28;20116;-67
2023/08/09 09:32:56;;;;;;;1.42;1.20;;;;;;;;;;5027852;28;20064;-68
2023/08/09 09:35:25;;;;;;;1.85;1.27;;;;;;;;;;5033235;28;20049;-69
2023/08/09 09:37:52;;;;;;;3.72;1.40;;;;;;;;;;5034454;28;20034;-68
2023/08/09 09:40:27;;;;;;;3.70;1.60;;;;;;;;;;5034383;28;20087;-67
2023/08/09 09:42:55;;;;;;;2.97;1.33;;;;;;;;;;5033482;28;20137;-69
2023/08/09 09:45:25;;;;;;;4.75;1.55;;;;;;;;;;5033789;28;20048;-68
2023/08/09 09:47:53;;;;;;;2.28;1.20;;;;;;;;;;5034957;28;20063;-68
2023/08/09 09:50:25;;;;;;;5.32;1.65;;;;;;;;;;5033200;28;20141;-69
2023/08/09 09:52:52;;;;;;;3.15;1.40;;;;;;;;;;5032329;28;20029;-70
2023/08/09 09:55:26;;;;;;;5.10;2.00;;;;;;;;;;5034042;28;20037;-69
2023/08/09 09:57:53;;;;;;;4.93;1.83;;;;;;;;;;5040560;28;20067;-68
2023/08/09 10:00:25;;;;;;;2.50;1.50;;;;;;;;;;5054533;28;20013;-68
2023/08/09 10:02:53;;;;;;;5.68;1.50;;;;;;;;;;5053794;28;20369;-68
2023/08/09 10:05:24;;;;;;;3.13;1.55;;;;;;;;;;5054118;28;20071;-69
2023/08/09 10:07:51;;;;;;;1.60;1.20;;;;;;;;;;5054336;28;20453;-69
2023/08/09 10:10:17;;;;;;;2.63;1.38;;;;;;;;;;5047941;28;20471;-69
2023/08/09 10:12:47;;;;;;;4.40;1.80;;;;;;;;;;5032444;28;20037;-69
2023/08/09 10:15:16;;;;;;;4.68;1.60;;;;;;;;;;5033500;28;20179;-68
2023/08/09 10:17:45;;;;;;;3.22;1.88;;;;;;;;;;5033813;28;20233;-68
2023/08/09 10:20:12;;;;;;;4.32;1.70;;;;;;;;;;5033662;28;20100;-66
2023/08/09 10:22:38;;;;;;;3.22;1.67;;;;;;;;;;5033978;28;20094;-68
2023/08/09 10:25:04;;;;;;;2.30;1.77;;;;;;;;;;5034278;28;20176;-68
2023/08/09 10:27:50;;;;;;;3.35;1.92;;;;;;;;;;5015925;28;20038;-66
2023/08/09 10:30:25;;;;;;;4.25;2.13;;;;;;;;;;5033125;28;20445;-68
2023/08/09 10:32:53;;;;;;;2.75;1.60;;;;;;;;;;5033242;28;20152;-68
2023/08/09 10:35:44;;;;;;;4.20;1.83;;;;;;;;;;5031988;28;20074;-68
2023/08/09 10:38:18;;;;;;;2.58;1.70;;;;;;;;;;5033444;28;20064;-68
2023/08/09 10:40:50;;;;;;;2.83;2.00;;;;;;;;;;5033327;28;20454;-68
2023/08/09 10:43:22;;;;;;;5.80;1.90;;;;;;;;;;5033044;28;20442;-66
2023/08/09 10:45:49;;;;;;;5.22;1.65;;;;;;;;;;5033099;28;20846;-68
2023/08/09 10:48:17;;;;;;;3.45;1.80;;;;;;;;;;5015465;28;20441;-68
2023/08/09 10:50:43;;;;;;;3.45;1.75;;;;;;;;;;5035073;28;20041;-70
2023/08/09 10:53:09;;;;;;;3.00;1.77;;;;;;;;;;5023755;28;20032;-66
2023/08/09 10:55:35;;;;;;;3.50;1.80;;;;;;;;;;5038724;28;20094;-68
2023/08/09 10:58:02;;;;;;;4.97;1.90;;;;;;;;;;5039217;28;20021;-67
2023/08/09 11:00:38;;;;;;;5.65;1.85;;;;;;;;;;5015174;28;20474;-67
2023/08/09 11:03:04;;;;;;;2.85;1.50;;;;;;;;;;5032508;28;20557;-68
2023/08/09 11:05:29;;;;;;;3.03;1.73;;;;;;;;;;5031990;28;20021;-67
2023/08/09 11:07:58;;;;;;;2.30;1.65;;;;;;;;;;5032680;28;20038;-67
2023/08/09 11:10:32;;;;;;;4.70;1.95;;;;;;;;;;5033127;28;20482;-67
2023/08/09 11:13:02;;;;;;;4.95;2.00;;;;;;;;;;5032433;28;20073;-68
2023/08/09 11:15:28;;;;;;;2.35;1.60;;;;;;;;;;5032760;28;20076;-68
2023/08/09 11:17:53;;;;;;;5.30;1.77;;;;;;;;;;5032073;28;20082;-69
2023/08/09 11:20:19;;;;;;;4.47;1.80;;;;;;;;;;5032036;28;20030;-69
2023/08/09 11:22:56;;;;;;;2.33;1.48;;;;;;;;;;5033788;28;20060;-68
2023/08/09 11:25:23;;;;;;;3.67;2.08;;;;;;;;;;5031548;28;20582;-68
2023/08/09 11:27:57;;;;;;;3.63;2.00;;;;;;;;;;5031855;28;20025;-67
2023/08/09 11:30:23;;;;;;;2.60;1.80;;;;;;;;;;5032926;28;20041;-68
2023/08/09 11:33:04;;;;;;;3.95;1.80;;;;;;;;;;5014418;28;20037;-67
2023/08/09 11:35:33;;;;;;;3.85;1.60;;;;;;;;;;5031386;28;20449;-69
2023/08/09 11:37:59;;;;;;;3.38;1.60;;;;;;;;;;5032312;28;20067;-68
2023/08/09 11:40:25;;;;;;;4.72;1.95;;;;;;;;;;5033258;28;20033;-68
2023/08/09 11:42:56;;;;;;;2.13;1.50;;;;;;;;;;5031908;28;20072;-69
2023/08/09 11:45:21;;;;;;;3.72;1.83;;;;;;;;;;5032774;28;20085;-67
2023/08/09 11:47:50;;;;;;;5.10;2.13;;;;;;;;;;5033134;28;20060;-68
2023/08/09 11:50:25;;;;;;;3.45;1.90;;;;;;;;;;5032566;28;20037;-67
2023/08/09 11:52:53;;;;;;;4.15;2.00;;;;;;;;;;5032965;28;20048;-67
2023/08/09 11:55:19;;;;;;;5.03;1.60;;;;;;;;;;5032713;28;20103;-67
2023/08/09 11:57:45;;;;;;;2.88;1.70;;;;;;;;;;5015185;28;20033;-68
2023/08/09 12:00:12;;;;;;;4.65;2.00;;;;;;;;;;5032296;28;20040;-67
2023/08/09 12:02:38;;;;;;;4.15;1.70;;;;;;;;;;5031947;28;20041;-68
2023/08/09 12:05:12;;;;;;;3.75;2.00;;;;;;;;;;5033313;28;20630;-67
2023/08/09 12:07:38;;;;;;;2.95;1.50;;;;;;;;;;5032252;28;20033;-69
2023/08/09 12:10:08;;;;;;;3.50;2.30;;;;;;;;;;5032223;28;20032;-67
2023/08/09 12:12:38;;;;;;;3.10;1.77;;;;;;;;;;5032309;28;20033;-68
2023/08/09 12:15:04;;;;;;;3.28;1.85;;;;;;;;;;5032624;28;20052;-67
2023/08/09 12:17:31;;;;;;;2.25;1.65;;;;;;;;;;5032470;28;20075;-67
2023/08/09 12:20:01;;;;;;;5.63;1.83;;;;;;;;;;5032348;28;20121;-68
2023/08/09 12:22:28;;;;;;;5.10;2.08;;;;;;;;;;5032190;28;20033;-67
2023/08/09 12:24:56;;;;;;;6.25;1.98;;;;;;;;;;5032018;28;20021;-66
2023/08/09 12:27:23;;;;;;;4.32;2.00;;;;;;;;;;5031873;28;20514;-68
2023/08/09 12:29:49;;;;;;;4.07;2.00;;;;;;;;;;5024120;28;20026;-67
2023/08/09 12:32:15;;;;;;;3.22;1.75;;;;;;;;;;5031794;28;20036;-67
2023/08/09 12:34:42;;;;;;;3.35;1.92;;;;;;;;;;5031571;28;20112;-67
2023/08/09 12:37:09;;;;;;;2.65;1.60;;;;;;;;;;5031809;28;20041;-67
2023/08/09 12:39:34;;;;;;;2.45;1.70;;;;;;;;;;5031779;28;20021;-67
2023/08/09 12:42:02;;;;;;;3.53;2.05;;;;;;;;;;5031706;28;20029;-68
2023/08/09 12:44:28;;;;;;;4.20;1.70;;;;;;;;;;5031710;28;20036;-69
2023/08/09 12:46:54;;;;;;;5.00;1.90;;;;;;;;;;5031860;28;20029;-67
2023/08/09 12:49:20;;;;;;;2.92;1.85;;;;;;;;;;5031608;28;20035;-67
2023/08/09 12:51:46;;;;;;;3.33;1.92;;;;;;;;;;5031516;28;20530;-67
2023/08/09 12:54:12;;;;;;;2.95;1.98;;;;;;;;;;5029809;28;20021;-67
2023/08/09 12:56:39;;;;;;;3.00;1.75;;;;;;;;;;5031015;28;20060;-67
2023/08/09 12:59:05;;;;;;;5.60;2.38;;;;;;;;;;5028847;28;20040;-67
2023/08/09 13:01:35;;;;;;;3.97;1.92;;;;;;;;;;5031214;28;20115;-65
2023/08/09 13:04:02;;;;;;;4.30;1.90;;;;;;;;;;5031221;28;20116;-68
2023/08/09 13:06:28;;;;;;;3.70;2.15;;;;;;;;;;5031072;28;20029;-68
2023/08/09 13:08:53;;;;;;;2.80;1.70;;;;;;;;;;5031358;28;20428;-69
2023/08/09 13:11:19;;;;;;;4.07;1.63;;;;;;;;;;5031334;28;20447;-69
2023/08/09 13:13:45;;;;;;;3.42;1.90;;;;;;;;;;5030653;28;20025;-69
2023/08/09 13:16:11;;;;;;;4.97;1.80;;;;;;;;;;5030896;28;20104;-68
2023/08/09 13:18:37;;;;;;;4.85;2.08;;;;;;;;;;5031158;28;20025;-69
2023/08/09 13:21:05;;;;;;;4.68;2.05;;;;;;;;;;5031244;28;20847;-68
2023/08/09 13:23:32;;;;;;;3.33;1.80;;;;;;;;;;5030857;28;20021;-69
2023/08/09 13:25:58;;;;;;;3.17;1.70;;;;;;;;;;5029903;28;20034;-70
2023/08/09 13:28:24;;;;;;;2.60;1.60;;;;;;;;;;5031019;28;20114;-68
2023/08/09 13:30:49;;;;;;;3.55;1.88;;;;;;;;;;5031096;28;20041;-69
2023/08/09 13:33:15;;;;;;;5.78;2.05;;;;;;;;;;5044958;28;20084;-70
2023/08/09 13:35:42;;;;;;;3.92;1.88;;;;;;;;;;5029270;28;20124;-68
2023/08/09 13:38:23;;;;;;;2.80;1.80;;;;;;;;;;5029487;28;20029;-68
2023/08/09 13:40:49;;;;;;;3.85;1.65;;;;;;;;;;5030939;28;20407;-68
2023/08/09 13:43:14;;;;;;;3.70;1.80;;;;;;;;;;5030075;28;20029;-68
2023/08/09 13:45:40;;;;;;;4.20;1.70;;;;;;;;;;5012685;28;20029;-69
2023/08/09 13:48:07;;;;;;;4.90;1.58;;;;;;;;;;5030941;28;20028;-69
2023/08/09 13:50:33;;;;;;;3.20;2.05;;;;;;;;;;5012970;28;20239;-71
2023/08/09 13:53:00;;;;;;;3.92;1.80;;;;;;;;;;5030392;28;20029;-71
2023/08/09 13:55:26;;;;;;;5.22;1.90;;;;;;;;;;5030830;28;20080;-71
2023/08/09 13:57:51;;;;;;;4.95;1.85;;;;;;;;;;5013105;28;20025;-71
2023/08/09 14:00:17;;;;;;;4.55;1.70;;;;;;;;;;5030991;28;20033;-70
2023/08/09 14:02:43;;;;;;;2.97;1.75;;;;;;;;;;5029512;28;20036;-68
2023/08/09 14:05:10;;;;;;;3.28;1.70;;;;;;;;;;5030873;28;20045;-69
2023/08/09 14:07:35;;;;;;;2.75;1.70;;;;;;;;;;5034266;28;20037;-70
2023/08/09 14:10:01;;;;;;;7.55;1.85;;;;;;;;;;5034083;28;20041;-69
2023/08/09 14:12:27;;;;;;;4.82;1.70;;;;;;;;;;5034453;28;20037;-70
2023/08/09 14:14:52;;;;;;;5.10;1.73;;;;;;;;;;5034130;28;20121;-71
2023/08/09 14:17:18;;;;;;;3.75;1.80;;;;;;;;;;5034450;28;20029;-68
2023/08/09 14:19:44;;;;;;;4.03;1.70;;;;;;;;;;5034557;28;20104;-70
2023/08/09 14:22:11;;;;;;;3.58;1.67;;;;;;;;;;5034579;28;20091;-70
2023/08/09 14:24:36;;;;;;;2.38;1.60;;;;;;;;;;5034244;28;20033;-70
2023/08/09 14:27:02;;;;;;;5.50;1.58;;;;;;;;;;5034409;28;20666;-69
2023/08/09 14:29:29;;;;;;;3.13;1.52;;;;;;;;;;5034089;28;20357;-70
2023/08/09 14:31:54;;;;;;;4.32;1.50;;;;;;;;;;5016618;28;20049;-69
2023/08/09 14:34:20;;;;;;;3.05;1.40;;;;;;;;;;5033792;28;20268;-70
2023/08/09 14:36:46;;;;;;;6.22;1.60;;;;;;;;;;5034195;28;20479;-71
2023/08/09 14:39:12;;;;;;;3.35;1.40;;;;;;;;;;5033966;28;20041;-70
2023/08/09 14:41:38;;;;;;;2.72;1.30;;;;;;;;;;5033933;28;20025;-70
2023/08/09 14:44:05;;;;;;;5.75;1.80;;;;;;;;;;5033870;28;20037;-69